sensor_id;sensor_type;location;lat;lon;timestamp;temperature;humidity
26655;DHT22;14278;50.784;4.630;2023-04-24T16:40:10;14.20;99.90
26655;DHT22;14278;50.784;4.630;2023-04-24T16:43:07;14.30;99.90
26655;DHT22;14278;50.784;4.630;2023-04-24T16:45:33;14.30;99.90
26655;DHT22;14278;50.784;4.630;2023-04-24T16:48:02;14.30;99.90
26655;DHT22;14278;50.784;4.630;2023-04-24T16:50:27;14.30;99.90
26655;DHT22;14278;50.784;4.630;2023-04-24T16:52:53;14.10;99.90
26655;DHT22;14278;50.784;4.630;2023-04-24T16:55:19;14.20;99.90
26655;DHT22;14278;50.784;4.630;2023-04-24T16:57:44;14.00;99.90
26655;DHT22;14278;50.784;4.630;2023-04-24T17:00:14;13.80;99.90
26655;DHT22;14278;50.784;4.630;2023-04-24T17:02:41;13.80;99.90
26655;DHT22;14278;50.784;4.630;2023-04-24T17:05:20;14.30;99.90
26655;DHT22;14278;50.784;4.630;2023-04-24T17:07:48;14.20;99.90
26655;DHT22;14278;50.784;4.630;2023-04-24T17:10:20;14.00;99.90
26655;DHT22;14278;50.784;4.630;2023-04-24T17:12:58;13.80;99.90
26655;DHT22;14278;50.784;4.630;2023-04-24T17:15:27;14.20;99.90
26655;DHT22;14278;50.784;4.630;2023-04-24T17:17:55;14.40;99.90
26655;DHT22;14278;50.784;4.630;2023-04-24T17:20:27;14.70;99.90
26655;DHT22;14278;50.784;4.630;2023-04-24T17:22:52;14.30;99.90
26655;DHT22;14278;50.784;4.630;2023-04-24T17:28:33;14.40;99.90
26655;DHT22;14278;50.784;4.630;2023-04-24T17:31:01;14.60;99.90
26655;DHT22;14278;50.784;4.630;2023-04-24T17:33:28;14.20;99.90
26655;DHT22;14278;50.784;4.630;2023-04-24T17:35:55;14.00;99.90
26655;DHT22;14278;50.784;4.630;2023-04-24T17:38:27;13.80;99.90
26655;DHT22;14278;50.784;4.630;2023-04-24T17:40:56;13.40;99.90
26655;DHT22;14278;50.784;4.630;2023-04-24T17:43:23;13.40;99.90
26655;DHT22;14278;50.784;4.630;2023-04-24T17:45:50;13.40;99.90
26655;DHT22;14278;50.784;4.630;2023-04-24T17:48:18;13.30;99.90
26655;DHT22;14278;50.784;4.630;2023-04-24T17:50:44;13.20;99.90
26655;DHT22;14278;50.784;4.630;2023-04-24T17:53:10;13.30;99.90
26655;DHT22;14278;50.784;4.630;2023-04-24T17:55:37;13.40;99.90
26655;DHT22;14278;50.784;4.630;2023-04-24T17:58:03;13.30;99.90
26655;DHT22;14278;50.784;4.630;2023-04-24T18:00:31;13.40;99.90
26655;DHT22;14278;50.784;4.630;2023-04-24T18:02:59;13.40;99.90
26655;DHT22;14278;50.784;4.630;2023-04-24T18:05:36;13.60;99.90
26655;DHT22;14278;50.784;4.630;2023-04-24T18:08:02;13.40;99.90
26655;DHT22;14278;50.784;4.630;2023-04-24T18:10:29;13.30;99.90
26655;DHT22;14278;50.784;4.630;2023-04-24T18:13:01;13.10;99.90
26655;DHT22;14278;50.784;4.630;2023-04-24T18:15:27;13.20;99.90
26655;DHT22;14278;50.784;4.630;2023-04-24T18:17:52;13.20;99.90
26655;DHT22;14278;50.784;4.630;2023-04-24T18:20:19;13.30;99.90
26655;DHT22;14278;50.784;4.630;2023-04-24T18:22:45;13.10;99.90
26655;DHT22;14278;50.784;4.630;2023-04-24T18:25:12;13.20;99.90
26655;DHT22;14278;50.784;4.630;2023-04-24T18:27:39;13.00;99.90
26655;DHT22;14278;50.784;4.630;2023-04-24T18:30:06;13.10;99.90
26655;DHT22;14278;50.784;4.630;2023-04-24T18:32:33;13.10;99.90
26655;DHT22;14278;50.784;4.630;2023-04-24T18:34:58;13.30;99.90
26655;DHT22;14278;50.784;4.630;2023-04-24T18:37:24;13.40;99.90
26655;DHT22;14278;50.784;4.630;2023-04-24T18:39:50;13.20;99.90
26655;DHT22;14278;50.784;4.630;2023-04-24T18:42:16;12.90;99.90
26655;DHT22;14278;50.784;4.630;2023-04-24T18:44:42;12.80;99.90
26655;DHT22;14278;50.784;4.630;2023-04-24T18:47:08;12.80;99.90
26655;DHT22;14278;50.784;4.630;2023-04-24T18:49:34;12.60;99.90
26655;DHT22;14278;50.784;4.630;2023-04-24T18:52:00;12.50;99.90
26655;DHT22;14278;50.784;4.630;2023-04-24T18:54:26;12.80;99.90
26655;DHT22;14278;50.784;4.630;2023-04-24T18:56:52;12.50;99.90
26655;DHT22;14278;50.784;4.630;2023-04-24T18:59:18;12.50;99.90
26655;DHT22;14278;50.784;4.630;2023-04-24T19:01:44;12.30;99.90
26655;DHT22;14278;50.784;4.630;2023-04-24T19:04:10;12.30;99.90
26655;DHT22;14278;50.784;4.630;2023-04-24T19:06:38;12.40;99.90
26655;DHT22;14278;50.784;4.630;2023-04-24T19:09:04;12.60;99.90
26655;DHT22;14278;50.784;4.630;2023-04-24T19:11:32;12.30;99.90
26655;DHT22;14278;50.784;4.630;2023-04-24T19:14:07;12.20;99.90
26655;DHT22;14278;50.784;4.630;2023-04-24T19:16:32;12.00;99.90
26655;DHT22;14278;50.784;4.630;2023-04-24T19:18:58;11.90;99.90
26655;DHT22;14278;50.784;4.630;2023-04-24T19:21:24;11.80;99.90
26655;DHT22;14278;50.784;4.630;2023-04-24T19:23:50;12.10;99.90
26655;DHT22;14278;50.784;4.630;2023-04-24T19:26:17;12.00;99.90
26655;DHT22;14278;50.784;4.630;2023-04-24T19:28:43;11.80;99.90
26655;DHT22;14278;50.784;4.630;2023-04-24T19:31:08;12.00;99.90
26655;DHT22;14278;50.784;4.630;2023-04-24T19:33:34;12.10;99.90
26655;DHT22;14278;50.784;4.630;2023-04-24T19:36:00;12.10;99.90
26655;DHT22;14278;50.784;4.630;2023-04-24T19:38:26;11.70;99.90
26655;DHT22;14278;50.784;4.630;2023-04-24T19:40:52;11.90;99.90
26655;DHT22;14278;50.784;4.630;2023-04-24T19:43:18;11.80;99.90
26655;DHT22;14278;50.784;4.630;2023-04-24T19:45:44;11.70;99.90
26655;DHT22;14278;50.784;4.630;2023-04-24T19:48:10;11.70;99.90
26655;DHT22;14278;50.784;4.630;2023-04-24T19:50:36;11.90;99.90
26655;DHT22;14278;50.784;4.630;2023-04-24T19:53:01;12.00;99.90
26655;DHT22;14278;50.784;4.630;2023-04-24T19:55:27;11.90;99.90
26655;DHT22;14278;50.784;4.630;2023-04-24T19:57:53;11.80;99.90
26655;DHT22;14278;50.784;4.630;2023-04-24T20:00:18;11.90;99.90
26655;DHT22;14278;50.784;4.630;2023-04-24T20:02:44;12.00;99.90
26655;DHT22;14278;50.784;4.630;2023-04-24T20:05:10;12.00;99.90
26655;DHT22;14278;50.784;4.630;2023-04-24T20:07:35;12.20;99.90
26655;DHT22;14278;50.784;4.630;2023-04-24T20:10:01;12.20;99.90
26655;DHT22;14278;50.784;4.630;2023-04-24T20:12:27;12.30;99.90
26655;DHT22;14278;50.784;4.630;2023-04-24T20:14:52;12.20;99.90
26655;DHT22;14278;50.784;4.630;2023-04-24T20:17:18;12.20;99.90
26655;DHT22;14278;50.784;4.630;2023-04-24T20:19:44;12.30;99.90
26655;DHT22;14278;50.784;4.630;2023-04-24T20:22:11;12.20;99.90
26655;DHT22;14278;50.784;4.630;2023-04-24T20:24:36;12.30;99.90
26655;DHT22;14278;50.784;4.630;2023-04-24T20:27:02;12.10;99.90
26655;DHT22;14278;50.784;4.630;2023-04-24T20:29:29;12.40;99.90
26655;DHT22;14278;50.784;4.630;2023-04-24T20:31:55;12.20;99.90
26655;DHT22;14278;50.784;4.630;2023-04-24T20:34:21;12.40;99.90
26655;DHT22;14278;50.784;4.630;2023-04-24T20:36:47;12.20;99.90
26655;DHT22;14278;50.784;4.630;2023-04-24T20:39:12;12.20;99.90
26655;DHT22;14278;50.784;4.630;2023-04-24T20:41:38;11.70;99.90
26655;DHT22;14278;50.784;4.630;2023-04-24T20:44:05;11.70;99.90
26655;DHT22;14278;50.784;4.630;2023-04-24T20:46:32;11.90;99.90
26655;DHT22;14278;50.784;4.630;2023-04-24T20:48:58;11.70;99.90
26655;DHT22;14278;50.784;4.630;2023-04-24T20:51:24;11.60;99.90
26655;DHT22;14278;50.784;4.630;2023-04-24T20:53:50;11.50;99.90
26655;DHT22;14278;50.784;4.630;2023-04-24T20:56:16;11.60;99.90
26655;DHT22;14278;50.784;4.630;2023-04-24T20:58:45;11.60;99.90
26655;DHT22;14278;50.784;4.630;2023-04-24T21:01:12;11.50;99.90
26655;DHT22;14278;50.784;4.630;2023-04-24T21:03:38;11.60;99.90
26655;DHT22;14278;50.784;4.630;2023-04-24T21:06:03;11.70;99.90
26655;DHT22;14278;50.784;4.630;2023-04-24T21:08:30;11.90;99.90
26655;DHT22;14278;50.784;4.630;2023-04-24T21:10:56;11.80;99.90
26655;DHT22;14278;50.784;4.630;2023-04-24T21:13:21;11.50;99.90
26655;DHT22;14278;50.784;4.630;2023-04-24T21:15:47;11.10;99.90
26655;DHT22;14278;50.784;4.630;2023-04-24T21:18:13;11.20;99.90
26655;DHT22;14278;50.784;4.630;2023-04-24T21:20:39;11.20;99.90
26655;DHT22;14278;50.784;4.630;2023-04-24T21:23:05;11.20;99.90
26655;DHT22;14278;50.784;4.630;2023-04-24T21:25:31;11.40;99.90
26655;DHT22;14278;50.784;4.630;2023-04-24T21:27:58;11.60;99.90
26655;DHT22;14278;50.784;4.630;2023-04-24T21:30:24;11.70;99.90
26655;DHT22;14278;50.784;4.630;2023-04-24T21:32:51;11.70;99.90
26655;DHT22;14278;50.784;4.630;2023-04-24T21:35:17;11.80;99.90
26655;DHT22;14278;50.784;4.630;2023-04-24T21:37:43;11.70;99.90
26655;DHT22;14278;50.784;4.630;2023-04-24T21:40:09;11.40;99.90
26655;DHT22;14278;50.784;4.630;2023-04-24T21:42:36;11.40;99.90
26655;DHT22;14278;50.784;4.630;2023-04-24T21:45:03;11.40;99.90
26655;DHT22;14278;50.784;4.630;2023-04-24T21:47:29;11.40;99.90
26655;DHT22;14278;50.784;4.630;2023-04-24T21:49:55;11.30;99.90
26655;DHT22;14278;50.784;4.630;2023-04-24T21:52:21;11.30;99.90
26655;DHT22;14278;50.784;4.630;2023-04-24T21:54:47;11.30;99.90
26655;DHT22;14278;50.784;4.630;2023-04-24T21:57:13;11.40;99.90
26655;DHT22;14278;50.784;4.630;2023-04-24T21:59:39;11.40;99.90
26655;DHT22;14278;50.784;4.630;2023-04-24T22:02:05;11.50;99.90
26655;DHT22;14278;50.784;4.630;2023-04-24T22:04:31;11.50;99.90
26655;DHT22;14278;50.784;4.630;2023-04-24T22:06:57;11.60;99.90
26655;DHT22;14278;50.784;4.630;2023-04-24T22:09:23;11.50;99.90
26655;DHT22;14278;50.784;4.630;2023-04-24T22:11:49;11.50;99.90
26655;DHT22;14278;50.784;4.630;2023-04-24T22:14:15;11.40;99.90
26655;DHT22;14278;50.784;4.630;2023-04-24T22:16:41;11.50;99.90
26655;DHT22;14278;50.784;4.630;2023-04-24T22:19:08;11.30;99.90
26655;DHT22;14278;50.784;4.630;2023-04-24T22:21:35;10.90;99.90
26655;DHT22;14278;50.784;4.630;2023-04-24T22:24:01;10.60;99.90
26655;DHT22;14278;50.784;4.630;2023-04-24T22:26:27;10.80;99.90
26655;DHT22;14278;50.784;4.630;2023-04-24T22:28:52;11.10;99.90
26655;DHT22;14278;50.784;4.630;2023-04-24T22:31:18;11.20;99.90
26655;DHT22;14278;50.784;4.630;2023-04-24T22:33:44;11.20;99.90
26655;DHT22;14278;50.784;4.630;2023-04-24T22:36:13;10.80;99.90
26655;DHT22;14278;50.784;4.630;2023-04-24T22:38:39;10.50;99.90
26655;DHT22;14278;50.784;4.630;2023-04-24T22:41:04;10.40;99.90
26655;DHT22;14278;50.784;4.630;2023-04-24T22:43:30;10.30;99.90
26655;DHT22;14278;50.784;4.630;2023-04-24T22:45:57;10.20;99.90
26655;DHT22;14278;50.784;4.630;2023-04-24T22:48:23;10.50;99.90
26655;DHT22;14278;50.784;4.630;2023-04-24T22:50:50;10.60;99.90
26655;DHT22;14278;50.784;4.630;2023-04-24T22:53:17;10.70;99.90
26655;DHT22;14278;50.784;4.630;2023-04-24T22:55:43;10.70;99.90
26655;DHT22;14278;50.784;4.630;2023-04-24T22:58:09;10.80;99.90
26655;DHT22;14278;50.784;4.630;2023-04-24T23:00:35;10.60;99.90
26655;DHT22;14278;50.784;4.630;2023-04-24T23:03:01;10.50;99.90
26655;DHT22;14278;50.784;4.630;2023-04-24T23:05:26;10.70;99.90
26655;DHT22;14278;50.784;4.630;2023-04-24T23:07:52;10.70;99.90
26655;DHT22;14278;50.784;4.630;2023-04-24T23:10:19;10.80;99.90
26655;DHT22;14278;50.784;4.630;2023-04-24T23:12:45;10.80;99.90
26655;DHT22;14278;50.784;4.630;2023-04-24T23:15:11;10.50;99.90
26655;DHT22;14278;50.784;4.630;2023-04-24T23:17:37;10.20;99.90
26655;DHT22;14278;50.784;4.630;2023-04-24T23:23:22;9.90;99.90
26655;DHT22;14278;50.784;4.630;2023-04-24T23:25:48;10.00;99.90
26655;DHT22;14278;50.784;4.630;2023-04-24T23:28:14;10.30;99.90
26655;DHT22;14278;50.784;4.630;2023-04-24T23:30:40;10.60;99.90
26655;DHT22;14278;50.784;4.630;2023-04-24T23:33:05;10.80;99.90
26655;DHT22;14278;50.784;4.630;2023-04-24T23:35:32;10.80;99.90
26655;DHT22;14278;50.784;4.630;2023-04-24T23:37:57;10.60;99.90
26655;DHT22;14278;50.784;4.630;2023-04-24T23:40:23;10.70;99.90
26655;DHT22;14278;50.784;4.630;2023-04-24T23:42:49;10.70;99.90
26655;DHT22;14278;50.784;4.630;2023-04-24T23:45:15;10.50;99.90
26655;DHT22;14278;50.784;4.630;2023-04-24T23:47:41;10.50;99.90
26655;DHT22;14278;50.784;4.630;2023-04-24T23:50:07;10.20;99.90
26655;DHT22;14278;50.784;4.630;2023-04-24T23:52:33;10.20;99.90
26655;DHT22;14278;50.784;4.630;2023-04-24T23:55:01;10.30;99.90
26655;DHT22;14278;50.784;4.630;2023-04-24T23:57:27;10.60;99.90
26655;DHT22;14278;50.784;4.630;2023-04-24T23:59:53;10.60;99.90
